Time;durP1;ratioP1;P1;durP2;ratioP2;P2;SDS_P1;SDS_P2;PMS_P1;PMS_P2;Temp;Humidity;BMP_temperature;BMP_pressure;BME280_temperature;BME280_humidity;BME280_pressure;Samples;Min_cycle;Max_cycle;Signal;HPM_P1;HPM_P2
2021/11/29 00:00:38;;;;;;;34.80;20.58;;;;;;;2.07;100.00;99054.81;5054856;28;20053;-82
2021/11/29 00:03:10;;;;;;;31.50;20.05;;;;;;;2.11;100.00;99048.56;5065145;28;20070;-82
2021/11/29 00:05:37;;;;;;;31.17;19.65;;;;;;;2.10;100.00;99046.88;5032243;28;20123;-83
2021/11/29 00:08:05;;;;;;;35.85;21.00;;;;;;;2.08;100.00;99053.94;5048841;28;20044;-82
2021/11/29 00:10:34;;;;;;;33.67;19.50;;;;;;;2.09;100.00;99047.81;5063063;28;20059;-83
2021/11/29 00:13:02;;;;;;;29.92;18.35;;;;;;;2.19;100.00;99049.03;5050631;28;20127;-81
2021/11/29 00:15:29;;;;;;;36.30;22.00;;;;;;;2.20;100.00;99053.28;5047868;28;20773;-83
2021/11/29 00:17:57;;;;;;;34.30;19.60;;;;;;;2.13;100.00;99046.75;5030581;28;20036;-82
2021/11/29 00:20:24;;;;;;;34.75;21.02;;;;;;;2.17;100.00;99049.13;5069192;28;20184;-81
2021/11/29 00:22:51;;;;;;;35.08;20.15;;;;;;;2.16;100.00;99049.16;5054469;28;20499;-83
2021/11/29 00:25:19;;;;;;;35.30;20.95;;;;;;;2.21;100.00;99047.22;5028511;28;20090;-83
2021/11/29 00:27:47;;;;;;;37.63;20.10;;;;;;;2.27;100.00;99052.91;5049500;28;20653;-83
2021/11/29 00:30:14;;;;;;;32.38;19.95;;;;;;;2.28;100.00;99053.75;5046360;28;20048;-82
2021/11/29 00:32:42;;;;;;;32.70;19.55;;;;;;;2.27;100.00;99055.53;5033215;28;20151;-82
2021/11/29 00:35:10;;;;;;;36.17;20.70;;;;;;;2.24;100.00;99049.63;5030550;28;20515;-82
2021/11/29 00:37:38;;;;;;;34.95;19.85;;;;;;;2.22;100.00;99057.50;5031108;28;20079;-83
2021/11/29 00:40:08;;;;;;;35.58;20.92;;;;;;;2.20;100.00;99054.13;5045828;28;20119;-83
2021/11/29 00:42:36;;;;;;;35.35;20.77;;;;;;;2.16;100.00;99056.97;5013495;28;20041;-83
2021/11/29 00:45:09;;;;;;;37.10;20.52;;;;;;;2.12;100.00;99063.25;5025793;28;20514;-83
2021/11/29 00:47:38;;;;;;;34.33;21.33;;;;;;;2.09;100.00;99060.78;5031888;28;20036;-83
2021/11/29 00:50:08;;;;;;;39.58;22.77;;;;;;;2.06;100.00;99066.97;5038887;28;20420;-82
2021/11/29 00:52:36;;;;;;;38.47;22.42;;;;;;;2.10;100.00;99072.84;5049195;28;20079;-83
2021/11/29 00:55:04;;;;;;;46.03;24.25;;;;;;;2.21;100.00;99067.97;5062608;28;20123;-83
2021/11/29 00:57:31;;;;;;;38.47;24.05;;;;;;;2.17;100.00;99072.47;5031290;28;20036;-82
2021/11/29 00:59:59;;;;;;;43.97;23.85;;;;;;;2.07;100.00;99078.19;5061123;28;20045;-82
2021/11/29 01:02:26;;;;;;;41.97;25.42;;;;;;;2.08;100.00;99072.94;5048115;28;20210;-83
2021/11/29 01:04:54;;;;;;;36.65;23.48;;;;;;;2.16;100.00;99077.72;5050245;28;20050;-82
2021/11/29 01:07:21;;;;;;;41.00;24.25;;;;;;;2.09;100.00;99081.56;5049745;28;20451;-83
2021/11/29 01:09:49;;;;;;;47.95;25.83;;;;;;;2.02;100.00;99083.59;5045041;28;20041;-83
2021/11/29 01:12:16;;;;;;;43.78;26.35;;;;;;;2.10;100.00;99085.81;5051848;28;20045;-83
2021/11/29 01:14:44;;;;;;;45.88;25.45;;;;;;;2.05;100.00;99083.44;5046387;28;20048;-83
2021/11/29 01:17:14;;;;;;;48.08;25.60;;;;;;;2.06;100.00;99090.31;5048534;28;20042;-83
2021/11/29 01:19:41;;;;;;;39.55;23.02;;;;;;;2.11;100.00;99090.09;5048603;28;20150;-83
2021/11/29 01:22:09;;;;;;;43.47;23.80;;;;;;;2.13;100.00;99090.88;5054327;28;20040;-83
2021/11/29 01:24:37;;;;;;;42.03;24.35;;;;;;;2.09;100.00;99089.34;5047812;28;20089;-83
2021/11/29 01:27:04;;;;;;;43.03;24.50;;;;;;;2.10;100.00;99086.66;5051613;28;20049;-81
2021/11/29 01:29:32;;;;;;;40.65;23.55;;;;;;;2.18;100.00;99094.91;5032953;28;20041;-82
2021/11/29 01:32:00;;;;;;;39.78;23.45;;;;;;;2.14;100.00;99098.59;5051172;28;20127;-81
2021/11/29 01:34:27;;;;;;;36.85;22.77;;;;;;;2.15;100.00;99095.06;5032978;28;20042;-83
2021/11/29 01:36:55;;;;;;;39.58;22.92;;;;;;;2.16;100.00;99103.69;5049952;28;20135;-83
2021/11/29 01:39:22;;;;;;;38.80;22.13;;;;;;;2.17;100.00;99105.38;5030988;28;21364;-84
2021/11/29 01:41:52;;;;;;;38.20;22.52;;;;;;;2.18;100.00;99109.66;5051206;28;20136;-83
2021/11/29 01:44:19;;;;;;;40.72;24.23;;;;;;;2.15;100.00;99104.59;5051503;28;20045;-82
2021/11/29 01:46:47;;;;;;;41.30;22.98;;;;;;;2.18;100.00;99104.47;5034337;28;20436;-83
2021/11/29 01:49:14;;;;;;;38.05;22.48;;;;;;;2.17;100.00;99102.78;5030250;28;20063;-83
2021/11/29 01:51:42;;;;;;;37.28;23.73;;;;;;;2.08;100.00;99093.69;5037497;28;20135;-82
2021/11/29 01:54:09;;;;;;;42.25;24.75;;;;;;;2.05;100.00;99100.78;5036396;28;20048;-83
2021/11/29 01:56:37;;;;;;;43.47;24.40;;;;;;;2.11;100.00;99098.72;5034996;28;20072;-83
2021/11/29 01:59:05;;;;;;;40.13;24.42;;;;;;;2.11;100.00;99098.72;5016048;28;20514;-82
2021/11/29 02:01:33;;;;;;;44.40;24.38;;;;;;;2.09;100.00;99095.38;5044680;28;20472;-82
2021/11/29 02:04:02;;;;;;;39.78;23.23;;;;;;;2.10;100.00;99101.41;5055355;28;20071;-80
2021/11/29 02:06:31;;;;;;;46.30;25.42;;;;;;;2.13;100.00;99096.06;5057247;28;20136;-82
2021/11/29 02:09:02;;;;;;;42.20;24.48;;;;;;;2.08;100.00;99101.50;5025551;28;20040;-82
2021/11/29 02:11:32;;;;;;;44.55;26.02;;;;;;;2.07;100.00;99097.19;5042091;28;20048;-83
2021/11/29 02:14:00;;;;;;;44.95;25.98;;;;;;;2.03;100.00;99104.31;5076145;28;20067;-83
2021/11/29 02:16:28;;;;;;;44.40;24.75;;;;;;;2.08;100.00;99098.06;5058720;28;20049;-83
2021/11/29 02:18:56;;;;;;;44.83;23.45;;;;;;;2.00;100.00;99109.63;5063238;28;20051;-83
2021/11/29 02:21:32;;;;;;;43.53;24.65;;;;;;;1.99;100.00;99109.72;5072442;28;20094;-82
2021/11/29 02:24:02;;;;;;;;;;;;;;;1.97;100.00;99120.16;5046103;28;20044;-82
2021/11/29 02:26:32;;;;;;;48.35;25.65;;;;;;;2.00;100.00;99117.41;5076516;28;19916;-82
2021/11/29 02:29:18;;;;;;;46.03;24.35;;;;;;;1.87;100.00;99115.47;5076506;28;20098;-82
2021/11/29 02:32:05;;;;;;;;;;;;;;;1.86;100.00;99119.84;5052689;28;20052;-82
2021/11/29 02:34:33;;;;;;;44.45;24.13;;;;;;;1.76;100.00;99118.59;5050216;28;19924;-82
2021/11/29 02:37:05;;;;;;;41.95;23.60;;;;;;;1.75;100.00;99112.53;5053802;28;20222;-82
2021/11/29 02:39:35;;;;;;;43.92;22.73;;;;;;;1.78;100.00;99108.97;5031702;28;20127;-83
2021/11/29 02:42:06;;;;;;;40.00;22.48;;;;;;;1.71;100.00;99120.53;5049897;28;20041;-83
2021/11/29 02:44:35;;;;;;;43.97;24.75;;;;;;;1.78;100.00;99121.94;5052245;28;20421;-82
2021/11/29 02:47:05;;;;;;;40.90;23.33;;;;;;;1.67;100.00;99119.88;5082988;28;20992;-82
2021/11/29 02:49:33;;;;;;;42.45;24.15;;;;;;;1.69;100.00;99127.56;5049826;28;20748;-83
2021/11/29 02:52:06;;;;;;;39.72;22.65;;;;;;;1.65;100.00;99126.03;5040102;28;20136;-83
2021/11/29 02:54:35;;;;;;;38.05;21.80;;;;;;;1.55;100.00;99123.03;5073828;28;20079;-83
2021/11/29 02:57:06;;;;;;;36.22;20.63;;;;;;;1.60;100.00;99122.81;5053619;28;20058;-83
2021/11/29 02:59:35;;;;;;;42.97;22.77;;;;;;;1.55;100.00;99122.19;5046036;28;20151;-83
2021/11/29 03:02:15;;;;;;;35.05;21.35;;;;;;;1.57;100.00;99128.97;5076929;28;20048;-83
2021/11/29 03:04:45;;;;;;;41.80;21.90;;;;;;;1.58;100.00;99122.06;5015405;28;20094;-83
2021/11/29 03:07:13;;;;;;;36.30;21.48;;;;;;;1.61;100.00;99127.06;5087568;28;20120;-83
2021/11/29 03:09:41;;;;;;;35.17;19.95;;;;;;;1.67;100.00;99126.81;5050858;28;20079;-84
2021/11/29 03:12:09;;;;;;;34.95;20.42;;;;;;;1.66;100.00;99130.28;5053289;28;20064;-83
2021/11/29 03:14:36;;;;;;;34.70;20.20;;;;;;;1.65;100.00;99128.63;5032966;28;20047;-84
2021/11/29 03:17:04;;;;;;;31.42;20.42;;;;;;;1.65;100.00;99126.03;5052043;28;20044;-83
2021/11/29 03:19:34;;;;;;;37.42;21.55;;;;;;;1.62;100.00;99126.16;5043074;28;20049;-82
2021/11/29 03:22:03;;;;;;;35.67;20.27;;;;;;;1.63;100.00;99126.09;5060878;28;20044;-82
2021/11/29 03:24:32;;;;;;;31.90;19.70;;;;;;;1.64;100.00;99132.13;5067516;28;20099;-82
2021/11/29 03:27:00;;;;;;;37.58;20.75;;;;;;;1.64;100.00;99130.38;5086527;28;20056;-82
2021/11/29 03:29:28;;;;;;;36.60;21.23;;;;;;;1.66;100.00;99130.28;5031835;28;20140;-82
2021/11/29 03:32:00;;;;;;;36.17;21.17;;;;;;;1.67;100.00;99129.41;5035750;28;20036;-82
2021/11/29 03:34:29;;;;;;;40.80;22.13;;;;;;;1.61;100.00;99121.88;5064902;28;20049;-81
2021/11/29 03:36:58;;;;;;;39.88;23.58;;;;;;;1.59;100.00;99124.56;5067335;28;20036;-82
2021/11/29 03:39:27;;;;;;;39.67;22.40;;;;;;;1.66;100.00;99125.94;5053088;28;20047;-83
2021/11/29 03:41:58;;;;;;;41.83;24.45;;;;;;;1.66;100.00;99130.28;5034895;28;20059;-83
2021/11/29 03:44:25;;;;;;;42.22;24.02;;;;;;;1.65;100.00;99128.63;5050584;28;20056;-83
2021/11/29 03:46:54;;;;;;;45.90;25.52;;;;;;;1.67;100.00;99125.06;5086246;28;20068;-82
2021/11/29 03:49:23;;;;;;;42.55;24.15;;;;;;;1.63;100.00;99125.28;5018812;28;20587;-83
2021/11/29 03:51:50;;;;;;;43.00;24.65;;;;;;;1.65;100.00;99129.47;5049061;28;20068;-83
2021/11/29 03:54:18;;;;;;;41.72;24.20;;;;;;;1.72;100.00;99130.88;5047581;28;20052;-83
2021/11/29 03:56:46;;;;;;;45.05;24.35;;;;;;;1.78;100.00;99127.13;5081596;28;20106;-83
2021/11/29 03:59:13;;;;;;;45.85;25.33;;;;;;;1.79;100.00;99128.81;5031342;28;20048;-83
2021/11/29 04:01:46;;;;;;;47.78;25.35;;;;;;;1.81;100.00;99127.00;5037281;28;20132;-83
2021/11/29 04:04:13;;;;;;;46.47;26.75;;;;;;;1.75;100.00;99132.47;5032259;28;20041;-83
2021/11/29 04:06:41;;;;;;;52.15;27.20;;;;;;;1.77;100.00;99133.25;5019784;28;20060;-82
2021/11/29 04:09:08;;;;;;;44.30;25.10;;;;;;;1.73;100.00;99129.09;5032669;28;20127;-83
2021/11/29 04:11:35;;;;;;;52.75;28.15;;;;;;;1.73;100.00;99132.53;5047052;28;20041;-82
2021/11/29 04:14:03;;;;;;;53.63;27.17;;;;;;;1.72;100.00;99132.63;5033102;28;20082;-83
2021/11/29 04:16:30;;;;;;;51.08;26.95;;;;;;;1.77;100.00;99128.91;5033551;28;20131;-83
2021/11/29 04:18:58;;;;;;;55.83;27.85;;;;;;;1.73;100.00;99129.09;5054218;28;20078;-82
2021/11/29 04:21:25;;;;;;;51.55;28.00;;;;;;;1.71;100.00;99128.31;5017090;28;20506;-82
2021/11/29 04:23:53;;;;;;;45.65;25.73;;;;;;;1.73;100.00;99124.75;5051183;28;20055;-82
2021/11/29 04:26:20;;;;;;;52.03;28.40;;;;;;;1.69;100.00;99119.78;5032889;28;20124;-81
2021/11/29 04:28:51;;;;;;;58.22;29.50;;;;;;;1.67;100.00;99121.63;5067011;28;21786;-82
2021/11/29 04:31:18;;;;;;;57.28;28.75;;;;;;;1.68;100.00;99118.09;5031436;28;20583;-82
2021/11/29 04:33:48;;;;;;;56.47;28.95;;;;;;;1.62;100.00;99120.97;5082160;28;20140;-81
2021/11/29 04:36:15;;;;;;;56.13;29.25;;;;;;;1.63;100.00;99127.88;5067728;28;20163;-82
2021/11/29 04:38:42;;;;;;;61.28;29.88;;;;;;;1.60;100.00;99126.25;5049559;28;20083;-82
2021/11/29 04:41:11;;;;;;;66.20;31.40;;;;;;;1.63;100.00;99127.88;5079741;28;20543;-82
2021/11/29 04:43:38;;;;;;;59.05;31.02;;;;;;;1.62;100.00;99128.75;5050657;28;20068;-83
2021/11/29 04:46:05;;;;;;;60.67;31.25;;;;;;;1.63;100.00;99127.88;5048729;28;20048;-82
2021/11/29 04:48:33;;;;;;;55.50;28.98;;;;;;;1.57;100.00;99134.16;5049975;28;20040;-83
2021/11/29 04:51:02;;;;;;;60.35;30.45;;;;;;;1.60;100.00;99130.59;5054602;28;20117;-82
2021/11/29 04:53:30;;;;;;;55.92;28.65;;;;;;;1.64;100.00;99132.13;5060330;28;20124;-82
2021/11/29 04:55:57;;;;;;;57.90;30.63;;;;;;;1.66;100.00;99130.28;5052385;28;20051;-82
2021/11/29 04:58:25;;;;;;;62.58;30.20;;;;;;;1.65;100.00;99131.22;5035893;28;20590;-82
2021/11/29 05:00:52;;;;;;;67.13;31.70;;;;;;;1.68;100.00;99139.69;5050862;28;20036;-83
2021/11/29 05:03:20;;;;;;;57.63;30.98;;;;;;;1.72;100.00;99137.81;5052771;28;20538;-82
2021/11/29 05:05:47;;;;;;;52.15;28.30;;;;;;;1.72;100.00;99136.06;5033412;28;20054;-82
2021/11/29 05:08:25;;;;;;;61.33;31.45;;;;;;;1.70;100.00;99137.84;5021414;28;20510;-82
2021/11/29 05:10:53;;;;;;;59.72;29.65;;;;;;;1.70;100.00;99137.84;5052550;28;20124;-82
2021/11/29 05:13:21;;;;;;;62.45;28.95;;;;;;;1.74;100.00;99143.75;5085695;28;20047;-81
2021/11/29 05:15:49;;;;;;;57.83;30.33;;;;;;;1.75;100.00;99153.22;5070699;28;20104;-82
2021/11/29 05:18:16;;;;;;;56.05;30.42;;;;;;;1.76;100.00;99160.09;5055774;28;20547;-82
2021/11/29 05:20:43;;;;;;;53.88;29.27;;;;;;;1.75;100.00;99164.44;5051775;28;20042;-84
2021/11/29 05:23:11;;;;;;;59.33;29.85;;;;;;;1.80;100.00;99165.97;5053412;28;20131;-83
2021/11/29 05:25:39;;;;;;;54.55;31.10;;;;;;;1.81;100.00;99167.69;5036893;28;20102;-83
2021/11/29 05:28:06;;;;;;;58.80;30.50;;;;;;;1.78;100.00;99161.69;5083051;28;20127;-82
2021/11/29 05:30:42;;;;;;;57.67;32.08;;;;;;;1.78;100.00;99174.66;5014491;28;20041;-84
2021/11/29 05:33:10;;;;;;;58.10;30.48;;;;;;;1.79;100.00;99183.28;5049594;28;20041;-84
2021/11/29 05:35:38;;;;;;;52.55;27.80;;;;;;;1.89;100.00;99179.38;5013344;28;20052;-84
2021/11/29 05:38:05;;;;;;;57.53;29.73;;;;;;;1.89;100.00;99187.16;5067934;28;20063;-85
2021/11/29 05:40:33;;;;;;;61.28;32.15;;;;;;;1.86;100.00;99189.91;5047510;28;20072;-85
2021/11/29 05:43:00;;;;;;;54.83;30.55;;;;;;;1.76;100.00;99197.28;5050792;28;20055;-85
2021/11/29 05:45:27;;;;;;;53.88;28.63;;;;;;;1.72;100.00;99211.28;5031843;28;20056;-84
2021/11/29 05:47:55;;;;;;;57.92;29.25;;;;;;;1.78;100.00;99202.38;5032104;28;20423;-83
2021/11/29 05:50:23;;;;;;;60.95;30.50;;;;;;;1.80;100.00;99200.53;5030752;28;20560;-81
2021/11/29 05:52:51;;;;;;;59.88;30.60;;;;;;;1.81;100.00;99197.06;5054066;28;20139;-83
2021/11/29 05:55:19;;;;;;;53.03;29.30;;;;;;;1.85;100.00;99205.53;5051090;28;20097;-84
2021/11/29 05:57:46;;;;;;;60.55;30.65;;;;;;;1.86;100.00;99207.22;5038062;28;20050;-82
2021/11/29 06:00:17;;;;;;;60.58;31.58;;;;;;;1.83;100.00;99209.94;5018539;28;20041;-83
2021/11/29 06:02:45;;;;;;;59.78;32.33;;;;;;;1.91;100.00;99207.84;5033906;28;20131;-85
2021/11/29 06:05:13;;;;;;;61.53;31.88;;;;;;;1.89;100.00;99223.50;5066028;28;20115;-85
2021/11/29 06:07:41;;;;;;;62.10;32.55;;;;;;;1.88;100.00;99216.59;5062781;28;20037;-85
2021/11/29 06:10:10;;;;;;;59.47;31.42;;;;;;;1.84;100.00;99222.84;5033794;28;20368;-83
2021/11/29 06:12:38;;;;;;;59.65;32.38;;;;;;;1.78;100.00;99218.78;5040021;28;20093;-83
2021/11/29 06:15:06;;;;;;;60.63;30.20;;;;;;;1.80;100.00;99230.84;5033902;28;20128;-84
2021/11/29 06:17:33;;;;;;;61.33;31.50;;;;;;;1.75;100.00;99226.69;5051546;28;20513;-84
2021/11/29 06:20:00;;;;;;;56.25;29.63;;;;;;;1.75;100.00;99231.03;5030970;28;20118;-83
2021/11/29 06:22:28;;;;;;;54.92;30.42;;;;;;;1.81;100.00;99225.59;5064761;28;20053;-82
2021/11/29 06:24:56;;;;;;;55.05;29.23;;;;;;;1.73;100.00;99232.88;5048994;28;20391;-85
2021/11/29 06:27:27;;;;;;;57.05;31.15;;;;;;;1.73;100.00;99235.47;5034242;28;20527;-84
2021/11/29 06:29:59;;;;;;;54.65;29.50;;;;;;;1.84;100.00;99237.56;5028842;28;20076;-83
2021/11/29 06:32:28;;;;;;;55.30;29.33;;;;;;;1.80;100.00;99238.63;5052041;28;20048;-86
2021/11/29 06:34:58;;;;;;;56.35;31.10;;;;;;;1.78;100.00;99242.13;5057595;28;20533;-83
2021/11/29 06:37:33;;;;;;;52.30;28.23;;;;;;;1.80;100.00;99242.06;5046417;28;20082;-84
2021/11/29 06:40:10;;;;;;;52.83;27.67;;;;;;;1.80;100.00;99242.06;5030949;28;20119;-87
2021/11/29 06:42:37;;;;;;;49.60;27.10;;;;;;;1.77;100.00;99247.41;5052715;28;20044;-86
2021/11/29 06:45:06;;;;;;;45.30;26.52;;;;;;;1.83;100.00;99259.25;5029329;28;20109;-83
2021/11/29 06:47:34;;;;;;;48.80;27.83;;;;;;;1.77;100.00;99247.41;5030037;28;20039;-83
2021/11/29 06:50:01;;;;;;;51.17;26.90;;;;;;;1.75;100.00;99257.00;5027909;28;21695;-85
2021/11/29 06:52:29;;;;;;;47.28;27.65;;;;;;;1.76;100.00;99261.28;5027328;28;20120;-84
2021/11/29 06:54:59;;;;;;;49.45;29.08;;;;;;;1.81;100.00;99264.53;5046009;28;20395;-85
2021/11/29 06:57:27;;;;;;;46.70;26.23;;;;;;;1.81;100.00;99261.94;5017396;28;20040;-85
2021/11/29 06:59:54;;;;;;;43.28;25.58;;;;;;;1.84;100.00;99268.72;5045928;28;20080;-85
2021/11/29 07:02:27;;;;;;;47.92;27.27;;;;;;;1.80;100.00;99269.75;5050491;28;20156;-84
2021/11/29 07:04:55;;;;;;;45.42;26.48;;;;;;;1.75;100.00;99275.16;5047904;28;20135;-86
2021/11/29 07:07:30;;;;;;;42.15;25.35;;;;;;;1.79;100.00;99268.91;5065273;28;20055;-88
2021/11/29 07:09:59;;;;;;;44.08;26.23;;;;;;;1.83;100.00;99269.63;5047124;28;20036;-86
2021/11/29 07:12:27;;;;;;;45.67;26.40;;;;;;;1.87;100.00;99277.22;5030375;28;20133;-86
2021/11/29 07:14:55;;;;;;;51.90;28.08;;;;;;;1.79;100.00;99274.09;5027325;28;20453;-88
2021/11/29 07:17:29;;;;;;;48.20;28.13;;;;;;;1.77;100.00;99281.13;5036102;28;20036;-85
2021/11/29 07:19:57;;;;;;;52.35;28.30;;;;;;;1.75;100.00;99283.78;5065346;28;20067;-87
2021/11/29 07:22:25;;;;;;;45.15;26.98;;;;;;;1.81;100.00;99292.22;5030624;28;20143;-84
2021/11/29 07:24:55;;;;;;;50.92;27.70;;;;;;;1.78;100.00;99288.00;5036937;28;20159;-85
2021/11/29 07:27:25;;;;;;;49.33;27.02;;;;;;;1.77;100.00;99296.69;5050751;28;20675;-86
2021/11/29 07:29:53;;;;;;;50.90;27.45;;;;;;;1.73;100.00;99302.94;5069304;28;20036;-86
2021/11/29 07:32:22;;;;;;;47.72;26.83;;;;;;;1.74;100.00;99296.81;5067956;28;20042;-84
2021/11/29 07:34:49;;;;;;;41.90;24.60;;;;;;;1.87;100.00;99307.50;5049004;28;20132;-86
2021/11/29 07:37:19;;;;;;;43.78;26.30;;;;;;;1.86;100.00;99308.44;5052108;28;20137;-84
2021/11/29 07:39:49;;;;;;;45.60;23.58;;;;;;;1.83;100.00;99311.97;5031285;28;20678;-85
2021/11/29 07:42:17;;;;;;;45.13;25.25;;;;;;;1.80;100.00;99308.69;5018191;28;20070;-85
2021/11/29 07:44:45;;;;;;;41.92;25.02;;;;;;;1.89;100.00;99316.06;5047756;28;20048;-83
2021/11/29 07:47:13;;;;;;;44.20;26.52;;;;;;;1.89;100.00;99308.28;5022895;28;20424;-86
2021/11/29 07:49:40;;;;;;;43.95;24.98;;;;;;;1.89;100.00;99316.91;5030094;28;20040;-86
2021/11/29 07:52:08;;;;;;;41.90;24.48;;;;;;;1.88;100.00;99314.38;5062948;28;20038;-84
2021/11/29 07:54:36;;;;;;;45.03;25.05;;;;;;;1.90;100.00;99321.19;5036459;28;20079;-86
2021/11/29 07:57:03;;;;;;;47.03;26.17;;;;;;;1.91;100.00;99319.44;5033649;28;20036;-84
2021/11/29 07:59:31;;;;;;;45.28;26.15;;;;;;;1.91;100.00;99328.06;5061977;28;20029;-85
2021/11/29 08:02:19;;;;;;;42.92;24.85;;;;;;;1.89;100.00;99327.31;5066085;28;20067;-85
2021/11/29 08:04:47;;;;;;;42.05;25.40;;;;;;;1.90;100.00;99328.97;5049781;28;20124;-85
2021/11/29 08:07:16;;;;;;;42.97;25.58;;;;;;;1.98;100.00;99326.91;5034865;28;20667;-85
2021/11/29 08:09:44;;;;;;;47.58;26.40;;;;;;;2.00;100.00;99326.81;5025010;28;20087;-83
2021/11/29 08:12:12;;;;;;;45.35;27.20;;;;;;;1.98;100.00;99328.63;5049761;28;20089;-84
2021/11/29 08:14:40;;;;;;;48.25;26.30;;;;;;;2.03;100.00;99327.53;5062138;28;20051;-86
2021/11/29 08:17:07;;;;;;;48.22;25.98;;;;;;;2.01;100.00;99337.13;5048215;28;20044;-84
2021/11/29 08:19:35;;;;;;;44.33;25.58;;;;;;;2.05;100.00;99337.00;5044406;28;20500;-85
2021/11/29 08:22:05;;;;;;;41.03;24.40;;;;;;;2.06;100.00;99338.66;5050507;28;20040;-84
2021/11/29 08:24:33;;;;;;;47.92;27.50;;;;;;;2.05;100.00;99348.22;5052856;28;20040;-86
2021/11/29 08:27:02;;;;;;;46.17;26.35;;;;;;;2.09;100.00;99341.13;5042718;28;20050;-85
2021/11/29 08:29:30;;;;;;;43.30;25.52;;;;;;;2.11;100.00;99353.13;5054595;28;20868;-85
2021/11/29 08:32:02;;;;;;;47.35;25.35;;;;;;;2.03;100.00;99350.88;5041453;28;20175;-83
2021/11/29 08:34:30;;;;;;;44.55;26.55;;;;;;;1.96;100.00;99353.81;5019640;28;20131;-85
2021/11/29 08:36:57;;;;;;;50.95;27.98;;;;;;;2.01;100.00;99354.44;5054788;28;20048;-85
2021/11/29 08:39:25;;;;;;;49.83;27.55;;;;;;;1.95;100.00;99350.38;5036842;28;20090;-86
2021/11/29 08:41:52;;;;;;;47.05;26.73;;;;;;;1.99;100.00;99357.13;5084384;28;20407;-85
2021/11/29 08:44:19;;;;;;;44.03;25.67;;;;;;;2.01;100.00;99357.03;5051272;28;20097;-86
2021/11/29 08:46:49;;;;;;;43.08;24.45;;;;;;;2.05;100.00;99360.34;5021048;28;20147;-85
2021/11/29 08:49:19;;;;;;;48.92;27.75;;;;;;;2.16;100.00;99358.09;5036138;28;20499;-82
2021/11/29 08:51:47;;;;;;;52.95;29.02;;;;;;;2.10;100.00;99363.59;5039363;28;20094;-84
2021/11/29 08:54:16;;;;;;;47.75;25.17;;;;;;;2.10;100.00;99363.59;5049643;28;20123;-85
2021/11/29 08:56:46;;;;;;;45.22;26.52;;;;;;;2.10;100.00;99364.41;5037696;28;20048;-83
2021/11/29 08:59:19;;;;;;;43.58;25.10;;;;;;;2.13;100.00;99366.06;5051593;28;20136;-86
2021/11/29 09:01:48;;;;;;;45.70;25.33;;;;;;;2.19;100.00;99365.78;5055869;28;20463;-83
2021/11/29 09:04:17;;;;;;;41.08;25.10;;;;;;;2.30;100.00;99373.94;5034580;28;20508;-87
2021/11/29 09:06:48;;;;;;;46.83;25.33;;;;;;;2.19;100.00;99374.41;5088255;28;20028;-84
2021/11/29 09:09:18;;;;;;;45.83;25.77;;;;;;;2.22;100.00;99376.88;5052067;28;20040;-85
2021/11/29 09:11:48;;;;;;;44.10;25.23;;;;;;;2.27;100.00;99382.69;5052447;28;20128;-86
2021/11/29 09:14:17;;;;;;;45.20;25.42;;;;;;;2.20;100.00;99383.88;5043990;28;20059;-86
2021/11/29 09:16:44;;;;;;;45.28;25.48;;;;;;;2.25;100.00;99386.25;5054407;28;20052;-86
2021/11/29 09:19:13;;;;;;;51.90;28.85;;;;;;;2.20;100.00;99385.63;5034911;28;20394;-85
2021/11/29 09:21:41;;;;;;;47.30;26.83;;;;;;;2.25;100.00;99386.25;5031619;28;20117;-86
2021/11/29 09:24:10;;;;;;;46.67;26.58;;;;;;;2.38;100.00;99390.00;5084734;28;20131;-85
2021/11/29 09:26:38;;;;;;;43.30;23.63;;;;;;;2.43;100.00;99385.47;5035802;28;20070;-84
2021/11/29 09:29:09;;;;;;;38.63;22.67;;;;;;;2.43;100.00;99382.84;5035343;28;20449;-84
2021/11/29 09:31:37;;;;;;;39.00;22.98;;;;;;;2.45;100.00;99386.22;5032366;28;20562;-84
2021/11/29 09:34:05;;;;;;;43.22;23.55;;;;;;;2.53;100.00;99383.28;5070174;28;20127;-85
2021/11/29 09:36:32;;;;;;;40.38;23.35;;;;;;;2.49;100.00;99379.97;5016447;28;20163;-84
2021/11/29 09:39:06;;;;;;;47.53;24.45;;;;;;;2.51;100.00;99383.31;5032608;28;20049;-85
2021/11/29 09:41:35;;;;;;;44.30;23.55;;;;;;;2.61;100.00;99380.31;5034428;28;20046;-85
2021/11/29 09:44:03;;;;;;;42.45;24.45;;;;;;;2.66;100.00;99380.97;5058368;28;20081;-84
2021/11/29 09:46:32;;;;;;;44.95;25.23;;;;;;;2.65;100.00;99374.91;5029454;28;20111;-85
2021/11/29 09:49:00;;;;;;;48.05;23.88;;;;;;;2.82;100.00;99381.06;5063691;28;20445;-85
2021/11/29 09:51:32;;;;;;;42.75;23.08;;;;;;;2.80;100.00;99381.16;5033163;28;20049;-85
2021/11/29 09:54:03;;;;;;;41.25;22.40;;;;;;;2.81;100.00;99385.44;5034022;28;20053;-85
2021/11/29 09:56:30;;;;;;;37.65;21.75;;;;;;;2.74;100.00;99382.25;5050106;28;20044;-83
2021/11/29 09:58:58;;;;;;;44.13;24.08;;;;;;;2.64;100.00;99375.81;5035594;28;20036;-84
2021/11/29 10:01:26;;;;;;;39.58;23.63;;;;;;;2.62;100.00;99379.41;5033757;28;20090;-85
2021/11/29 10:04:03;;;;;;;44.42;24.60;;;;;;;2.50;100.00;99381.66;5049326;28;20048;-85
2021/11/29 10:06:31;;;;;;;44.65;24.42;;;;;;;2.45;100.00;99382.78;5036992;28;20118;-83
2021/11/29 10:09:01;;;;;;;38.08;22.65;;;;;;;2.36;100.00;99384.03;5064659;28;20464;-85
2021/11/29 10:11:29;;;;;;;46.70;24.60;;;;;;;2.40;100.00;99379.56;5034282;28;20040;-85
2021/11/29 10:14:05;;;;;;;42.92;24.10;;;;;;;2.43;100.00;99382.00;5033453;28;20143;-84
2021/11/29 10:16:41;;;;;;;43.57;24.70;;;;;;;2.45;100.00;99393.16;5015133;28;20798;-85
2021/11/29 10:19:10;;;;;;;48.13;25.42;;;;;;;2.49;100.00;99385.16;5047959;28;20577;-86
2021/11/29 10:21:38;;;;;;;43.80;24.10;;;;;;;2.64;100.00;99387.97;5067991;28;20036;-84
2021/11/29 10:24:12;;;;;;;44.38;23.25;;;;;;;2.73;100.00;99387.53;5031809;28;20044;-84
2021/11/29 10:26:41;;;;;;;38.47;21.85;;;;;;;2.82;100.00;99391.47;5050872;28;20045;-84
2021/11/29 10:29:13;;;;;;;39.63;21.33;;;;;;;2.86;100.00;99387.81;5016603;28;20402;-85
2021/11/29 10:31:48;;;;;;;40.63;22.48;;;;;;;2.87;100.00;99395.53;5035196;28;20068;-84
2021/11/29 10:34:23;;;;;;;41.35;23.80;;;;;;;2.84;100.00;99400.91;5031253;28;20036;-85
2021/11/29 10:37:00;;;;;;;38.80;21.50;;;;;;;2.88;100.00;99399.84;5034499;28;20520;-84
2021/11/29 10:39:33;;;;;;;37.28;20.70;;;;;;;2.88;100.00;99398.97;5061153;28;20134;-84
2021/11/29 10:42:03;;;;;;;38.00;20.83;;;;;;;2.89;100.00;99401.53;5033142;28;20052;-85
2021/11/29 10:44:33;;;;;;;43.08;23.20;;;;;;;2.94;100.00;99401.31;5042107;28;20040;-85
2021/11/29 10:47:27;;;;;;;40.70;21.70;;;;;;;3.03;100.00;99401.69;5065261;28;20641;-85
2021/11/29 10:49:57;;;;;;;36.80;19.50;;;;;;;3.17;100.00;99403.66;5029978;28;20044;-85
2021/11/29 10:52:33;;;;;;;34.97;20.85;;;;;;;3.13;100.00;99411.66;5044983;28;20098;-85
2021/11/29 10:55:02;;;;;;;36.00;21.02;;;;;;;3.12;100.00;99399.59;5045198;28;20110;-83
2021/11/29 10:57:30;;;;;;;35.20;20.10;;;;;;;3.01;100.00;99392.28;5050488;28;20626;-84
2021/11/29 10:59:58;;;;;;;35.97;21.63;;;;;;;2.93;100.00;99408.25;5049647;28;20533;-86
2021/11/29 11:02:27;;;;;;;35.97;20.10;;;;;;;2.92;100.00;99405.72;5049385;28;20060;-86
2021/11/29 11:05:12;;;;;;;36.70;20.67;;;;;;;2.91;100.00;99404.03;5029224;28;20044;-84
2021/11/29 11:07:40;;;;;;;33.78;20.42;;;;;;;2.92;100.00;99409.16;5050679;28;20106;-85
2021/11/29 11:10:15;;;;;;;33.95;20.33;;;;;;;3.10;100.00;99406.59;5045307;28;20399;-86
2021/11/29 11:12:44;;;;;;;32.55;18.85;;;;;;;3.25;100.00;99400.69;5034131;28;20451;-85
2021/11/29 11:15:16;;;;;;;32.42;19.58;;;;;;;3.33;100.00;99397.69;5047572;28;20564;-85
2021/11/29 11:18:01;;;;;;;27.27;17.00;;;;;;;3.61;100.00;99405.84;5035936;28;20094;-85
2021/11/29 11:20:29;;;;;;;31.58;18.67;;;;;;;3.95;100.00;99401.50;5028562;28;20137;-86
2021/11/29 11:22:57;;;;;;;31.55;18.02;;;;;;;3.91;98.84;99402.59;5034033;28;20047;-86
2021/11/29 11:25:31;;;;;;;29.60;17.48;;;;;;;3.85;98.03;99403.75;5060457;28;20068;-85